Time;durP1;ratioP1;P1;durP2;ratioP2;P2;SDS_P1;SDS_P2;PMS_P1;PMS_P2;Temp;Humidity;BMP_temperature;BMP_pressure;BME280_temperature;BME280_humidity;BME280_pressure;Samples;Min_cycle;Max_cycle;Signal;HPM_P1;HPM_P2
2022/01/18 00:01:44;;;;;;;29.40;8.67;;;1.70;33.60;;;;;;6293238;28;20242;-56
2022/01/18 00:04:48;;;;;;;19.47;6.97;;;1.70;34.00;;;;;;6296004;28;20329;-58
2022/01/18 00:07:50;;;;;;;22.83;7.03;;;1.90;34.60;;;;;;6288354;28;20260;-56
2022/01/18 00:10:53;;;;;;;20.70;6.93;;;1.90;34.60;;;;;;6287019;28;20237;-55
2022/01/18 00:14:02;;;;;;;15.90;6.63;;;1.80;35.60;;;;;;6302482;28;20228;-58
2022/01/18 00:17:17;;;;;;;17.43;7.43;;;1.60;35.20;;;;;;6290761;28;20236;-59
2022/01/18 00:20:30;;;;;;;27.60;8.27;;;1.90;35.30;;;;;;6293335;28;20272;-57
2022/01/18 00:23:33;;;;;;;23.00;7.23;;;1.50;36.20;;;;;;6286703;28;20441;-56
2022/01/18 00:26:36;;;;;;;17.30;7.70;;;1.60;36.80;;;;;;6292934;28;20768;-58
2022/01/18 00:29:48;;;;;;;23.33;7.37;;;1.70;37.20;;;;;;6280615;28;20428;-57
2022/01/18 00:32:59;;;;;;;20.80;7.23;;;1.70;37.40;;;;;;6288311;28;20257;-56
2022/01/18 00:36:04;;;;;;;22.10;6.90;;;1.60;37.20;;;;;;6288731;28;20241;-57
2022/01/18 00:39:08;;;;;;;30.03;7.47;;;1.50;37.90;;;;;;6287936;28;20256;-57
2022/01/18 00:42:11;;;;;;;23.47;8.77;;;1.60;38.80;;;;;;6292025;28;20247;-56
2022/01/18 00:45:15;;;;;;;28.60;7.87;;;1.50;38.30;;;;;;6297514;28;20327;-56
2022/01/18 00:48:18;;;;;;;20.80;7.57;;;1.50;38.50;;;;;;6285507;28;20305;-57
2022/01/18 00:51:21;;;;;;;29.40;9.10;;;1.70;38.70;;;;;;6283860;28;20318;-57
2022/01/18 00:54:32;;;;;;;23.30;7.83;;;1.70;38.70;;;;;;6283101;28;20371;-57
2022/01/18 00:57:34;;;;;;;24.93;8.63;;;1.50;39.60;;;;;;6303406;28;20236;-56
2022/01/18 01:00:38;;;;;;;35.73;8.07;;;1.50;39.10;;;;;;6299342;28;20298;-56
2022/01/18 01:03:41;;;;;;;26.23;7.67;;;1.40;39.30;;;;;;6291490;28;20229;-55
2022/01/18 01:06:44;;;;;;;24.07;7.30;;;1.60;39.70;;;;;;6304295;28;20229;-58
2022/01/18 01:09:49;;;;;;;28.93;8.53;;;1.40;39.90;;;;;;6285269;28;20228;-55
2022/01/18 01:12:52;;;;;;;28.13;8.60;;;1.50;41.30;;;;;;6284419;28;20263;-56
2022/01/18 01:16:07;;;;;;;26.03;7.87;;;1.50;40.50;;;;;;6289993;28;20303;-55
2022/01/18 01:19:24;;;;;;;21.20;7.57;;;1.40;40.70;;;;;;6295453;28;20260;-58
2022/01/18 01:36:06;;;;;;;22.43;7.90;;;1.20;42.00;;;;;;6279187;28;20501;-57
2022/01/18 01:42:54;;;;;;;24.73;8.23;;;1.30;42.90;;;;;;6291159;28;20233;-57
2022/01/18 01:45:58;;;;;;;26.00;8.37;;;1.40;43.40;;;;;;6279560;28;20371;-55
2022/01/18 01:49:07;;;;;;;29.73;8.60;;;1.20;43.40;;;;;;6278053;28;20241;-55
2022/01/18 01:52:12;;;;;;;23.43;7.20;;;1.30;44.30;;;;;;6285269;28;20226;-56
2022/01/18 01:55:15;;;;;;;29.33;7.43;;;1.30;44.30;;;;;;6299041;28;20840;-55
2022/01/18 01:58:20;;;;;;;24.77;7.60;;;1.20;44.70;;;;;;6291114;28;20520;-55
2022/01/18 02:01:23;;;;;;;27.33;8.20;;;1.00;44.20;;;;;;6297119;28;20394;-56
2022/01/18 02:04:28;;;;;;;21.23;7.60;;;1.10;44.30;;;;;;6283586;28;20483;-56
2022/01/18 02:07:31;;;;;;;17.43;7.23;;;0.90;44.40;;;;;;6286042;28;20240;-55
2022/01/18 02:10:35;;;;;;;17.40;7.17;;;1.20;44.90;;;;;;6296617;28;20370;-55
2022/01/18 02:13:38;;;;;;;26.33;8.60;;;1.10;44.50;;;;;;6288866;28;20328;-56
2022/01/18 02:23:25;;;;;;;30.70;7.37;;;1.10;45.50;;;;;;6290347;28;20272;-55
2022/01/18 02:26:28;;;;;;;23.37;7.43;;;1.20;45.10;;;;;;6284388;28;20237;-57
2022/01/18 02:29:31;;;;;;;23.50;8.90;;;1.10;45.20;;;;;;6286415;28;20225;-56
2022/01/18 02:32:34;;;;;;;29.50;7.93;;;1.10;45.70;;;;;;6282720;28;20264;-56
2022/01/18 02:35:39;;;;;;;21.07;7.50;;;0.90;45.00;;;;;;6286333;28;20225;-55
2022/01/18 02:38:42;;;;;;;35.67;8.23;;;1.10;46.00;;;;;;6286881;28;20634;-56
2022/01/18 02:41:44;;;;;;;30.47;9.33;;;0.80;45.80;;;;;;6286359;28;20374;-55
2022/01/18 02:44:49;;;;;;;19.63;8.53;;;1.00;45.90;;;;;;6290021;28;20745;-56
2022/01/18 02:47:52;;;;;;;29.90;8.80;;;0.90;45.80;;;;;;6304096;28;20240;-56
2022/01/18 02:50:56;;;;;;;19.17;7.40;;;1.10;46.00;;;;;;6288526;28;20362;-56
2022/01/18 02:54:02;;;;;;;24.43;7.83;;;1.20;46.10;;;;;;6294950;28;20701;-56
2022/01/18 02:57:10;;;;;;;23.33;8.63;;;1.10;46.30;;;;;;6289325;28;20375;-56
2022/01/18 03:00:20;;;;;;;25.47;7.27;;;1.00;46.30;;;;;;6282438;28;20348;-56
2022/01/18 03:03:24;;;;;;;18.70;7.27;;;1.20;46.80;;;;;;6286755;28;22215;-57
2022/01/18 03:06:28;;;;;;;22.87;7.63;;;1.20;46.20;;;;;;6299082;28;20593;-56
2022/01/18 03:09:31;;;;;;;24.83;7.33;;;1.20;46.10;;;;;;6288799;28;20243;-56
2022/01/18 03:12:34;;;;;;;20.20;7.47;;;0.90;45.80;;;;;;6274128;28;20387;-55
2022/01/18 03:15:37;;;;;;;32.53;9.27;;;1.30;47.50;;;;;;6298438;28;20293;-58
2022/01/18 03:18:40;;;;;;;19.33;7.10;;;0.90;46.90;;;;;;6297113;28;20237;-55
2022/01/18 03:21:44;;;;;;;22.00;7.07;;;1.10;46.20;;;;;;6298383;28;20263;-58
2022/01/18 03:24:58;;;;;;;32.03;9.40;;;0.90;46.20;;;;;;6288168;28;20237;-54
2022/01/18 03:28:07;;;;;;;21.33;7.80;;;0.80;46.10;;;;;;6285678;28;20698;-55
2022/01/18 03:31:10;;;;;;;24.73;7.80;;;1.00;46.10;;;;;;6295126;28;20237;-55
2022/01/18 03:34:12;;;;;;;29.37;8.97;;;0.80;45.80;;;;;;6293443;28;20233;-55
2022/01/18 03:37:16;;;;;;;21.30;7.53;;;1.10;46.60;;;;;;6298243;28;20238;-56
2022/01/18 03:40:20;;;;;;;22.77;7.70;;;1.10;46.70;;;;;;6288412;28;20255;-55
2022/01/18 03:43:22;;;;;;;33.53;9.27;;;1.10;47.40;;;;;;6301219;28;20298;-55
2022/01/18 03:46:25;;;;;;;19.30;7.73;;;1.00;45.90;;;;;;6306158;28;20241;-55
2022/01/18 03:49:29;;;;;;;27.10;7.93;;;1.30;46.50;;;;;;6291011;28;20370;-55
2022/01/18 03:52:34;;;;;;;26.03;8.30;;;1.00;46.20;;;;;;6291051;28;20312;-54
2022/01/18 03:55:40;;;;;;;25.93;7.83;;;1.30;47.30;;;;;;6292037;28;20252;-55
2022/01/18 03:58:42;;;;;;;28.80;9.27;;;1.10;46.60;;;;;;6292945;28;20856;-54
2022/01/18 04:01:45;;;;;;;22.47;7.43;;;1.20;46.80;;;;;;6283299;28;20270;-55
2022/01/18 04:04:48;;;;;;;23.63;7.67;;;1.30;46.30;;;;;;6289537;28;20248;-55
2022/01/18 04:07:53;;;;;;;27.93;7.87;;;1.30;46.30;;;;;;6289096;28;20230;-55
2022/01/18 04:10:55;;;;;;;22.70;7.73;;;1.30;46.40;;;;;;6301444;28;20328;-55
2022/01/18 04:13:59;;;;;;;26.07;7.60;;;1.40;46.20;;;;;;6299859;28;20316;-55
2022/01/18 04:17:09;;;;;;;20.00;8.10;;;1.30;45.90;;;;;;6284362;28;20628;-56
2022/01/18 04:26:58;;;;;;;24.17;9.33;;;1.20;46.20;;;;;;6284372;28;20627;-53
2022/01/18 04:30:00;;;;;;;23.60;8.03;;;1.00;46.30;;;;;;6304337;28;20296;-55
2022/01/18 04:33:03;;;;;;;19.10;7.30;;;1.20;46.10;;;;;;6268509;28;20233;-55
2022/01/18 04:36:09;;;;;;;25.87;8.30;;;1.20;46.30;;;;;;6284319;28;20744;-56
2022/01/18 04:39:13;;;;;;;36.43;9.47;;;1.20;46.70;;;;;;6283613;28;20229;-56
2022/01/18 04:42:19;;;;;;;22.27;8.07;;;1.30;46.90;;;;;;6296892;28;20244;-55
2022/01/18 04:48:43;;;;;;;21.30;8.23;;;1.40;47.20;;;;;;6281495;28;20244;-54
2022/01/18 04:51:46;;;;;;;26.20;9.13;;;1.50;46.50;;;;;;6281682;28;20233;-56
2022/01/18 04:54:58;;;;;;;23.80;8.60;;;1.30;46.20;;;;;;6284679;28;20233;-57
2022/01/18 04:58:01;;;;;;;24.30;9.90;;;1.40;46.30;;;;;;6288395;28;20230;-56
2022/01/18 05:01:07;;;;;;;29.07;8.97;;;1.60;46.50;;;;;;6285239;28;20257;-57
2022/01/18 05:04:10;;;;;;;27.43;10.50;;;1.60;46.50;;;;;;6281267;28;20244;-56
2022/01/18 05:07:16;;;;;;;24.07;10.03;;;1.60;46.70;;;;;;6285608;28;20807;-56
2022/01/18 05:10:22;;;;;;;26.20;9.53;;;1.70;45.50;;;;;;6283330;28;20225;-56
2022/01/18 05:13:49;;;;;;;25.97;9.90;;;1.40;45.50;;;;;;6278047;28;20628;-55
2022/01/18 05:16:58;;;;;;;22.33;10.33;;;1.10;45.20;;;;;;6287335;28;20306;-56
2022/01/18 05:20:24;;;;;;;30.70;10.00;;;1.70;45.20;;;;;;6284789;28;20718;-56
2022/01/18 05:23:24;;;;;;;25.07;9.17;;;1.80;45.00;;;;;;6279068;28;20625;-56
2022/01/18 05:26:29;;;;;;;25.93;10.07;;;1.80;44.80;;;;;;6291219;28;20240;-57
2022/01/18 05:29:32;;;;;;;24.93;9.73;;;1.70;44.60;;;;;;6282550;28;20715;-55
2022/01/18 05:32:35;;;;;;;24.47;11.07;;;1.90;44.80;;;;;;6287428;28;20233;-56
2022/01/18 05:35:38;;;;;;;24.53;9.33;;;1.70;45.00;;;;;;6284579;28;20317;-56
2022/01/18 05:38:41;;;;;;;28.20;9.50;;;1.70;44.40;;;;;;6290200;28;20233;-56
2022/01/18 05:41:46;;;;;;;21.70;8.90;;;1.80;44.40;;;;;;6278339;28;20264;-58
2022/01/18 05:44:49;;;;;;;25.90;9.47;;;1.80;44.50;;;;;;6284649;28;20316;-57
2022/01/18 05:47:52;;;;;;;27.87;10.97;;;1.90;44.80;;;;;;6283590;28;20244;-55
2022/01/18 05:50:59;;;;;;;24.10;9.23;;;1.90;45.30;;;;;;6285308;28;20351;-56
2022/01/18 05:54:02;;;;;;;26.97;9.87;;;1.80;45.10;;;;;;6275534;28;20236;-56
2022/01/18 05:57:06;;;;;;;29.33;8.77;;;1.70;44.10;;;;;;6282900;28;20234;-56
2022/01/18 06:00:19;;;;;;;26.30;8.53;;;1.90;44.10;;;;;;6281252;28;20244;-57
2022/01/18 06:03:27;;;;;;;28.50;9.57;;;1.70;44.80;;;;;;6284351;28;20330;-57
2022/01/18 06:09:50;;;;;;;25.83;8.40;;;1.80;44.80;;;;;;6281662;28;20243;-56
2022/01/18 06:12:54;;;;;;;31.20;8.43;;;1.60;44.00;;;;;;6284851;28;20233;-56
2022/01/18 06:15:57;;;;;;;27.60;8.53;;;1.70;44.30;;;;;;6292238;28;20248;-57
2022/01/18 06:19:00;;;;;;;18.13;8.70;;;1.20;44.10;;;;;;6289222;28;20675;-57
2022/01/18 06:22:04;;;;;;;24.47;8.97;;;1.70;44.60;;;;;;6280435;28;20847;-56
2022/01/18 06:25:09;;;;;;;20.87;9.53;;;1.60;44.80;;;;;;6278664;28;20851;-55
2022/01/18 06:28:13;;;;;;;20.03;9.17;;;1.70;44.80;;;;;;6284233;28;20225;-56
2022/01/18 06:31:16;;;;;;;27.53;10.17;;;1.70;44.80;;;;;;6278955;28;20327;-57
2022/01/18 06:34:19;;;;;;;17.53;9.50;;;1.70;45.30;;;;;;6282950;28;20237;-57
2022/01/18 06:37:22;;;;;;;27.70;8.80;;;1.70;45.40;;;;;;6284871;28;20285;-57
2022/01/18 06:40:25;;;;;;;23.27;8.60;;;1.50;45.40;;;;;;6277941;28;20721;-56
2022/01/18 06:43:29;;;;;;;21.33;8.40;;;1.60;46.00;;;;;;6285332;28;20692;-57
2022/01/18 06:46:32;;;;;;;29.27;9.07;;;1.70;45.80;;;;;;6287911;28;20256;-57
2022/01/18 06:49:35;;;;;;;19.53;8.27;;;1.70;45.90;;;;;;6284544;28;20229;-57
2022/01/18 06:52:38;;;;;;;26.13;8.90;;;1.60;45.80;;;;;;6280797;28;20566;-56
2022/01/18 06:55:41;;;;;;;30.27;9.03;;;1.80;46.10;;;;;;6283360;28;20420;-55
2022/01/18 06:58:45;;;;;;;25.00;7.70;;;1.50;45.80;;;;;;6282673;28;20322;-57
2022/01/18 07:01:48;;;;;;;18.37;7.70;;;1.70;46.00;;;;;;6286146;28;20724;-56
2022/01/18 07:04:51;;;;;;;23.40;9.17;;;1.70;45.40;;;;;;6281163;28;20788;-56
2022/01/18 07:07:53;;;;;;;19.73;7.50;;;1.80;45.60;;;;;;6275972;28;20260;-57
2022/01/18 07:10:56;;;;;;;21.53;7.07;;;1.90;45.60;;;;;;6283714;28;20248;-56
2022/01/18 07:14:02;;;;;;;21.10;7.10;;;1.90;46.10;;;;;;6282927;28;20324;-56
2022/01/18 07:17:11;;;;;;;21.87;7.33;;;1.80;46.00;;;;;;6278122;28;20240;-57
2022/01/18 07:20:13;;;;;;;20.03;7.37;;;2.10;45.80;;;;;;6282851;28;20241;-56
2022/01/18 07:23:17;;;;;;;13.03;5.93;;;2.10;45.60;;;;;;6282248;28;20314;-57
2022/01/18 07:26:20;;;;;;;19.40;6.27;;;2.00;45.30;;;;;;6272028;28;20328;-56
2022/01/18 07:29:25;;;;;;;12.07;6.67;;;2.20;45.40;;;;;;6271151;28;20343;-57
2022/01/18 07:32:28;;;;;;;18.53;7.00;;;2.10;44.90;;;;;;6258932;28;20237;-59
2022/01/18 07:35:32;;;;;;;15.73;7.40;;;2.30;43.60;;;;;;6281139;28;20309;-58
2022/01/18 07:38:35;;;;;;;18.27;8.00;;;2.40;43.40;;;;;;6282357;28;20330;-57
2022/01/18 07:41:39;;;;;;;25.43;7.63;;;2.40;42.90;;;;;;6289166;28;20282;-60
2022/01/18 07:44:43;;;;;;;14.70;6.50;;;2.70;42.50;;;;;;6282672;28;20326;-56
2022/01/18 07:47:45;;;;;;;18.30;6.83;;;2.70;42.20;;;;;;6289117;28;20316;-54
2022/01/18 07:50:48;;;;;;;18.83;7.47;;;2.90;41.70;;;;;;6283569;28;20238;-57
2022/01/18 07:53:51;;;;;;;25.37;8.73;;;2.70;41.40;;;;;;6286763;28;20232;-55
2022/01/18 07:56:54;;;;;;;16.70;8.10;;;2.90;41.60;;;;;;6285621;28;20312;-57
2022/01/18 07:59:58;;;;;;;24.30;8.50;;;2.80;41.00;;;;;;6293803;28;20290;-57
2022/01/18 08:03:07;;;;;;;17.33;6.93;;;2.90;40.40;;;;;;6288105;28;20623;-56
2022/01/18 08:06:10;;;;;;;27.63;9.13;;;3.10;41.30;;;;;;6287356;28;20256;-56
2022/01/18 08:09:16;;;;;;;14.33;7.27;;;3.20;39.80;;;;;;6285808;28;20252;-58
2022/01/18 08:12:19;;;;;;;17.73;7.50;;;3.20;40.00;;;;;;6285984;28;20272;-56
2022/01/18 08:15:25;;;;;;;27.07;7.40;;;3.30;37.00;;;;;;6292670;28;20287;-56
2022/01/18 08:18:28;;;;;;;12.00;6.73;;;3.60;37.60;;;;;;6296929;28;20249;-57
2022/01/18 08:21:31;;;;;;;23.63;7.73;;;3.50;37.60;;;;;;6277170;28;20400;-56
2022/01/18 08:24:33;;;;;;;17.93;6.50;;;3.50;36.30;;;;;;6280106;28;20252;-56
2022/01/18 08:27:36;;;;;;;17.77;7.10;;;3.60;36.00;;;;;;6291974;28;20261;-56
2022/01/18 08:30:40;;;;;;;20.60;7.13;;;3.60;36.70;;;;;;6291188;28;20841;-56
2022/01/18 08:33:43;;;;;;;21.33;7.53;;;3.60;36.90;;;;;;6291420;28;20236;-55
2022/01/18 08:36:46;;;;;;;19.67;6.87;;;3.60;36.00;;;;;;6293627;28;20275;-57
2022/01/18 08:39:49;;;;;;;14.70;7.67;;;3.80;36.80;;;;;;6287925;28;20736;-61
2022/01/18 08:42:52;;;;;;;19.77;7.17;;;4.00;35.20;;;;;;6286018;28;20244;-59
2022/01/18 08:45:56;;;;;;;19.90;7.27;;;3.90;34.70;;;;;;6286357;28;20363;-56
2022/01/18 08:49:00;;;;;;;20.23;7.10;;;4.10;35.20;;;;;;6277265;28;20230;-55
2022/01/18 08:52:03;;;;;;;13.50;6.90;;;4.20;34.80;;;;;;6285842;28;20245;-56
2022/01/18 08:55:07;;;;;;;18.10;7.03;;;4.00;33.40;;;;;;6290953;28;20567;-55
2022/01/18 08:58:09;;;;;;;21.37;7.87;;;4.20;32.00;;;;;;6285060;28;20315;-56
2022/01/18 09:01:14;;;;;;;24.00;7.53;;;4.00;30.90;;;;;;6284243;28;20248;-55
2022/01/18 09:04:17;;;;;;;23.03;6.23;;;4.10;30.60;;;;;;6277787;28;20241;-55
2022/01/18 09:07:21;;;;;;;19.80;7.23;;;4.30;32.10;;;;;;6285289;28;20941;-56
2022/01/18 09:10:26;;;;;;;17.90;7.87;;;3.70;30.00;;;;;;6286124;28;20233;-58
2022/01/18 09:13:28;;;;;;;26.17;7.10;;;4.20;30.20;;;;;;6281756;28;20233;-57
2022/01/18 09:16:32;;;;;;;16.93;7.10;;;4.40;30.00;;;;;;6285278;28;20221;-57
2022/01/18 09:19:35;;;;;;;14.67;7.40;;;4.40;28.50;;;;;;6272385;28;20316;-56
2022/01/18 09:22:41;;;;;;;17.23;7.10;;;4.60;28.80;;;;;;6262620;28;20693;-56
2022/01/18 09:25:43;;;;;;;19.47;7.07;;;4.50;28.10;;;;;;6287834;28;20743;-57
2022/01/18 09:28:51;;;;;;;15.50;6.60;;;4.60;28.80;;;;;;6284507;28;20542;-57
2022/01/18 09:31:57;;;;;;;15.63;6.63;;;4.70;28.60;;;;;;6279840;28;20237;-56
2022/01/18 09:34:59;;;;;;;16.50;6.67;;;4.80;27.50;;;;;;6274857;28;20819;-56
2022/01/18 09:38:04;;;;;;;15.13;6.80;;;4.90;26.60;;;;;;6267668;28;20757;-56
2022/01/18 09:41:11;;;;;;;14.07;6.60;;;5.10;24.80;;;;;;6275830;28;20241;-55
2022/01/18 09:44:14;;;;;;;14.47;5.83;;;4.70;24.10;;;;;;6274329;28;20735;-55
2022/01/18 09:47:18;;;;;;;19.60;6.70;;;5.10;24.40;;;;;;6280001;28;20244;-56
2022/01/18 09:50:22;;;;;;;15.30;6.07;;;5.00;23.90;;;;;;6295783;28;20237;-56
2022/01/18 09:53:26;;;;;;;12.57;6.07;;;4.90;22.90;;;;;;6286132;28;21319;-58
2022/01/18 09:56:29;;;;;;;15.87;5.97;;;5.30;24.30;;;;;;6285674;28;20334;-58
2022/01/18 09:59:32;;;;;;;21.57;6.00;;;5.10;22.90;;;;;;6283122;28;20612;-56
2022/01/18 10:02:36;;;;;;;13.13;5.73;;;5.20;22.80;;;;;;6290744;28;20240;-59
2022/01/18 10:05:39;;;;;;;11.53;6.00;;;5.10;20.90;;;;;;6285262;28;20794;-57
2022/01/18 10:08:48;;;;;;;11.60;5.77;;;5.30;20.90;;;;;;6277639;28;20264;-56
2022/01/18 10:12:01;;;;;;;12.97;5.60;;;5.40;20.10;;;;;;6284028;28;20248;-56
2022/01/18 10:15:06;;;;;;;14.57;5.93;;;5.80;19.70;;;;;;6284799;28;20221;-56
2022/01/18 10:18:10;;;;;;;8.83;6.03;;;5.80;20.60;;;;;;6280551;28;20265;-57
2022/01/18 10:21:15;;;;;;;14.80;5.83;;;4.90;19.00;;;;;;6284251;28;20321;-57
2022/01/18 10:24:20;;;;;;;10.30;5.40;;;5.40;18.30;;;;;;6290583;28;20320;-57
2022/01/18 10:27:34;;;;;;;20.70;5.77;;;5.50;18.90;;;;;;6281133;28;20788;-59
2022/01/18 10:30:43;;;;;;;12.07;5.67;;;5.70;19.00;;;;;;6283537;28;20542;-57
2022/01/18 10:33:58;;;;;;;11.57;5.43;;;5.40;15.90;;;;;;6287955;28;20233;-56
2022/01/18 10:37:04;;;;;;;10.40;5.40;;;5.70;18.00;;;;;;6278889;28;20718;-56
2022/01/18 10:40:16;;;;;;;14.20;5.53;;;5.70;17.80;;;;;;6278773;28;20825;-58
2022/01/18 10:43:27;;;;;;;15.37;6.40;;;5.80;19.10;;;;;;6279540;28;20253;-54
2022/01/18 10:46:35;;;;;;;11.07;5.33;;;5.70;16.80;;;;;;6282873;28;20386;-57
2022/01/18 10:49:44;;;;;;;12.63;5.50;;;5.80;15.10;;;;;;6270624;28;20249;-57
2022/01/18 10:52:52;;;;;;;9.33;5.97;;;6.00;15.90;;;;;;6268712;28;20345;-58
2022/01/18 10:56:13;;;;;;;18.40;6.43;;;5.70;14.00;;;;;;6277887;28;20286;-58
2022/01/18 10:59:21;;;;;;;9.10;5.70;;;6.10;13.50;;;;;;6270797;28;20359;-57
2022/01/18 11:02:25;;;;;;;12.37;5.67;;;6.00;14.10;;;;;;6264764;28;20252;-57
2022/01/18 11:05:33;;;;;;;9.70;5.77;;;6.10;11.40;;;;;;6266697;28;20238;-57
2022/01/18 11:08:35;;;;;;;12.07;5.57;;;6.10;9.30;;;;;;6283225;28;20819;-57
2022/01/18 11:11:42;;;;;;;13.73;5.27;;;6.20;9.90;;;;;;6281331;28;20341;-57
2022/01/18 11:14:47;;;;;;;10.37;5.37;;;6.00;10.60;;;;;;6294435;28;20609;-57
2022/01/18 11:17:57;;;;;;;8.13;5.00;;;6.30;7.80;;;;;;6274660;28;20232;-58
2022/01/18 11:21:02;;;;;;;10.03;5.50;;;6.30;5.60;;;;;;6265219;28;20263;-58
2022/01/18 11:24:06;;;;;;;11.17;5.23;;;6.20;5.60;;;;;;6263001;28;20230;-58
2022/01/18 11:27:13;;;;;;;17.37;5.10;;;6.20;4.00;;;;;;6292357;28;20229;-57
2022/01/18 11:30:18;;;;;;;10.90;5.17;;;6.00;2.60;;;;;;6283292;28;20236;-56
2022/01/18 11:33:26;;;;;;;10.20;4.97;;;6.00;4.60;;;;;;6288460;28;20435;-57
2022/01/18 11:36:38;;;;;;;16.63;5.40;;;5.40;5.10;;;;;;6295391;28;20838;-57
2022/01/18 11:39:41;;;;;;;10.83;5.00;;;6.00;3.40;;;;;;6288737;28;20239;-57
2022/01/18 11:42:50;;;;;;;9.07;4.60;;;6.00;2.20;;;;;;6289649;28;20229;-59
2022/01/18 11:45:52;;;;;;;6.17;4.27;;;6.30;1.20;;;;;;6300521;28;20934;-58
2022/01/18 11:49:02;;;;;;;7.67;4.50;;;6.10;1.00;;;;;;6288795;28;20331;-57
2022/01/18 11:52:10;;;;;;;15.20;5.00;;;6.10;1.00;;;;;;6295361;28;20910;-58
2022/01/18 11:55:37;;;;;;;8.83;4.43;;;6.00;1.00;;;;;;6294683;28;20229;-57
2022/01/18 11:58:42;;;;;;;7.37;4.47;;;6.10;1.00;;;;;;6291915;28;20786;-58
2022/01/18 12:01:51;;;;;;;8.00;4.83;;;6.00;1.00;;;;;;6286204;28;20237;-57
2022/01/18 12:05:13;;;;;;;8.63;4.27;;;6.20;1.00;;;;;;6296263;28;20242;-58
2022/01/18 12:08:41;;;;;;;7.37;5.10;;;6.10;1.00;;;;;;6293993;28;20914;-57
2022/01/18 12:11:43;;;;;;;10.13;4.40;;;6.50;1.00;;;;;;6299591;28;20634;-58
2022/01/18 12:14:46;;;;;;;8.20;4.57;;;6.30;1.00;;;;;;6297386;28;20236;-57
2022/01/18 12:17:50;;;;;;;4.97;4.20;;;6.20;1.00;;;;;;6303323;28;20334;-58
2022/01/18 12:20:54;;;;;;;5.70;4.00;;;6.30;1.00;;;;;;6292936;28;20859;-57
2022/01/18 12:24:12;;;;;;;6.97;4.30;;;6.20;1.00;;;;;;6287424;28;20312;-57
2022/01/18 12:27:29;;;;;;;11.30;4.40;;;6.50;1.00;;;;;;6285615;28;20239;-57
2022/01/18 12:30:42;;;;;;;10.77;4.43;;;6.20;1.00;;;;;;6287861;28;20237;-57
2022/01/18 12:33:46;;;;;;;6.73;4.17;;;6.20;1.00;;;;;;6292658;28;20571;-57
2022/01/18 12:36:49;;;;;;;4.67;4.33;;;6.30;1.00;;;;;;6301249;28;20279;-58
2022/01/18 12:40:05;;;;;;;14.90;4.60;;;6.60;1.00;;;;;;6282568;28;20233;-58
2022/01/18 12:46:49;;;;;;;8.23;4.30;;;6.50;1.00;;;;;;6285225;28;20229;-58
2022/01/18 12:49:53;;;;;;;8.33;4.40;;;6.40;1.00;;;;;;6283543;28;20253;-57
2022/01/18 12:52:58;;;;;;;6.57;4.17;;;6.40;1.00;;;;;;6293908;28;20294;-56
2022/01/18 12:56:04;;;;;;;12.90;4.03;;;6.40;1.00;;;;;;6290240;28;20257;-58
2022/01/18 12:59:07;;;;;;;5.20;3.80;;;6.40;1.00;;;;;;6287096;28;20274;-58
2022/01/18 13:02:21;;;;;;;6.30;3.90;;;6.50;1.00;;;;;;6286708;28;20248;-57
2022/01/18 13:05:37;;;;;;;7.60;3.50;;;6.50;1.00;;;;;;6289240;28;20244;-57
2022/01/18 13:08:43;;;;;;;4.40;4.07;;;6.40;1.00;;;;;;6284777;28;20251;-56
2022/01/18 13:11:47;;;;;;;5.30;4.30;;;6.40;1.00;;;;;;6285873;28;20722;-57
2022/01/18 13:14:54;;;;;;;6.37;3.93;;;6.50;1.00;;;;;;6288499;28;20233;-57
2022/01/18 13:25:07;;;;;;;5.73;3.97;;;6.40;1.00;;;;;;6291947;28;20235;-58
2022/01/18 13:28:11;;;;;;;6.30;4.10;;;6.30;1.00;;;;;;6289710;28;20238;-58
2022/01/18 13:31:15;;;;;;;6.30;4.10;;;6.50;1.00;;;;;;6286266;28;20249;-61
2022/01/18 13:34:28;;;;;;;4.30;3.90;;;6.30;1.00;;;;;;6279902;28;20237;-57
2022/01/18 13:37:34;;;;;;;6.97;4.20;;;6.40;1.00;;;;;;6290696;28;20225;-57
2022/01/18 13:40:37;;;;;;;6.73;4.27;;;6.20;1.00;;;;;;6284310;28;20229;-57
2022/01/18 13:43:42;;;;;;;7.57;4.13;;;6.30;1.00;;;;;;6291950;28;20694;-56
2022/01/18 13:46:45;;;;;;;8.63;4.43;;;6.20;1.00;;;;;;6292529;28;20225;-57
2022/01/18 13:49:48;;;;;;;9.30;4.43;;;6.20;1.00;;;;;;6286375;28;20643;-57
2022/01/18 13:52:58;;;;;;;4.67;4.00;;;6.40;1.00;;;;;;6282599;28;20240;-57
2022/01/18 13:56:04;;;;;;;5.00;4.13;;;6.30;1.00;;;;;;6277379;28;20317;-57
2022/01/18 13:59:08;;;;;;;12.93;5.10;;;6.10;1.00;;;;;;6286181;28;20257;-54
2022/01/18 14:02:13;;;;;;;10.37;4.57;;;6.30;1.00;;;;;;6282970;28;20411;-57
2022/01/18 14:05:19;;;;;;;5.07;3.77;;;6.00;1.00;;;;;;6283642;28;20726;-57
2022/01/18 14:08:30;;;;;;;5.00;4.20;;;6.00;1.00;;;;;;6282744;28;20661;-56
2022/01/18 14:11:35;;;;;;;6.47;3.70;;;6.00;1.00;;;;;;6283370;28;20767;-55
2022/01/18 14:14:42;;;;;;;5.60;4.63;;;6.00;1.00;;;;;;6286681;28;20753;-57
2022/01/18 14:18:01;;;;;;;5.53;4.60;;;6.20;1.00;;;;;;6283987;28;20946;-59
2022/01/18 14:21:04;;;;;;;9.20;4.30;;;6.10;1.00;;;;;;6285206;28;20917;-56
2022/01/18 14:24:14;;;;;;;4.47;4.07;;;6.20;1.00;;;;;;6285277;28;20886;-56
2022/01/18 14:27:23;;;;;;;8.00;4.20;;;6.10;1.00;;;;;;6283624;28;20283;-58
2022/01/18 14:30:29;;;;;;;9.33;4.73;;;6.00;1.00;;;;;;6285455;28;20236;-56
2022/01/18 14:33:32;;;;;;;6.27;4.00;;;6.20;1.00;;;;;;6285595;28;20357;-56
2022/01/18 14:36:35;;;;;;;8.50;4.60;;;6.00;1.00;;;;;;6285620;28;20308;-56
2022/01/18 14:39:52;;;;;;;10.33;4.43;;;6.00;1.00;;;;;;6290267;28;20703;-56
2022/01/18 14:42:59;;;;;;;5.83;3.80;;;6.00;1.00;;;;;;6283567;28;20261;-58
2022/01/18 14:46:17;;;;;;;7.57;4.50;;;5.80;1.00;;;;;;6287380;28;20675;-57
2022/01/18 14:49:20;;;;;;;6.43;4.10;;;6.00;1.00;;;;;;6289316;28;20879;-57
2022/01/18 14:52:24;;;;;;;4.63;3.87;;;6.10;1.00;;;;;;6289752;28;20363;-57
2022/01/18 14:55:28;;;;;;;8.00;3.93;;;5.90;1.00;;;;;;6287246;28;20245;-57
2022/01/18 14:58:30;;;;;;;5.40;4.03;;;5.90;1.00;;;;;;6289582;28;20232;-57
2022/01/18 15:01:36;;;;;;;4.50;4.10;;;5.90;1.00;;;;;;6290645;28;20233;-55
2022/01/18 15:04:39;;;;;;;4.63;3.70;;;5.30;1.00;;;;;;6285210;28;20737;-56
2022/01/18 15:07:42;;;;;;;4.20;3.87;;;5.70;1.00;;;;;;6288559;28;20244;-56
2022/01/18 15:10:45;;;;;;;4.07;3.77;;;5.90;1.00;;;;;;6290622;28;20314;-56
2022/01/18 15:13:48;;;;;;;6.30;4.43;;;6.10;1.00;;;;;;6288213;28;20353;-57
2022/01/18 15:16:52;;;;;;;7.30;3.77;;;6.20;1.00;;;;;;6286877;28;20286;-56
2022/01/18 15:19:55;;;;;;;4.00;3.77;;;5.90;1.00;;;;;;6287701;28;20268;-58
2022/01/18 15:22:58;;;;;;;8.30;4.20;;;5.80;1.00;;;;;;6289823;28;20392;-58
2022/01/18 15:26:21;;;;;;;4.67;4.27;;;5.90;1.00;;;;;;6285422;28;20234;-57
2022/01/18 15:29:23;;;;;;;5.50;4.33;;;5.70;1.00;;;;;;6286027;28;20609;-57
2022/01/18 15:32:27;;;;;;;4.63;4.20;;;5.80;1.00;;;;;;6286436;28;20328;-56
2022/01/18 15:35:30;;;;;;;7.13;3.97;;;5.90;1.00;;;;;;6282628;28;20498;-56
2022/01/18 15:38:33;;;;;;;4.80;3.90;;;5.80;1.00;;;;;;6287744;28;20264;-57
2022/01/18 15:41:36;;;;;;;4.30;4.00;;;5.70;1.00;;;;;;6287418;28;20263;-56
2022/01/18 15:44:39;;;;;;;7.03;4.07;;;5.70;1.00;;;;;;6285518;28;20303;-57
2022/01/18 15:47:44;;;;;;;5.43;3.80;;;5.60;1.00;;;;;;6284329;28;20248;-56
2022/01/18 15:50:47;;;;;;;4.27;3.80;;;5.70;1.00;;;;;;6296244;28;20310;-56
2022/01/18 15:53:52;;;;;;;4.10;3.73;;;5.80;1.00;;;;;;6289318;28;21179;-57
2022/01/18 15:56:55;;;;;;;5.00;3.90;;;5.90;1.00;;;;;;6288746;28;20324;-57
2022/01/18 15:59:58;;;;;;;4.77;3.87;;;5.70;1.00;;;;;;6299764;28;20596;-57
2022/01/18 16:03:02;;;;;;;4.57;4.17;;;5.80;1.00;;;;;;6286347;28;20326;-56
2022/01/18 16:06:05;;;;;;;6.73;4.37;;;5.70;1.00;;;;;;6286167;28;20235;-55
2022/01/18 16:09:08;;;;;;;4.73;4.27;;;5.70;1.40;;;;;;6288236;28;20274;-57
2022/01/18 16:12:12;;;;;;;4.40;4.10;;;5.70;1.90;;;;;;6289816;28;20942;-56
2022/01/18 16:15:15;;;;;;;5.43;3.90;;;5.80;2.60;;;;;;6282789;28;20238;-57
2022/01/18 16:18:19;;;;;;;4.30;3.90;;;5.70;3.20;;;;;;6282680;28;20229;-55
2022/01/18 16:21:25;;;;;;;6.60;4.70;;;5.70;3.60;;;;;;6286149;28;20241;-59
2022/01/18 16:24:28;;;;;;;11.80;4.90;;;5.70;4.30;;;;;;6285628;28;20242;-58
2022/01/18 16:27:30;;;;;;;5.23;4.23;;;5.70;5.80;;;;;;6284578;28;20247;-57
2022/01/18 16:30:33;;;;;;;4.93;4.40;;;5.90;6.90;;;;;;6287672;28;20962;-56
2022/01/18 16:33:37;;;;;;;7.57;4.67;;;5.80;7.50;;;;;;6279455;28;20756;-56
2022/01/18 16:36:41;;;;;;;5.53;4.80;;;5.70;8.40;;;;;;6283555;28;20233;-56
2022/01/18 16:39:44;;;;;;;4.83;4.27;;;5.90;9.10;;;;;;6286923;28;20224;-55
2022/01/18 16:42:48;;;;;;;4.93;4.43;;;5.70;9.40;;;;;;6280651;28;20234;-57
2022/01/18 16:45:51;;;;;;;7.70;4.80;;;5.90;9.90;;;;;;6286938;28;20283;-58
2022/01/18 16:48:55;;;;;;;5.13;4.70;;;5.80;10.80;;;;;;6286137;28;20245;-56
2022/01/18 16:51:58;;;;;;;9.23;4.87;;;5.80;12.70;;;;;;6281411;28;20313;-57
2022/01/18 16:55:01;;;;;;;5.37;4.80;;;5.80;15.60;;;;;;6287160;28;20960;-57
2022/01/18 16:58:03;;;;;;;4.90;4.50;;;6.00;16.30;;;;;;6290362;28;20304;-64
2022/01/18 17:01:08;;;;;;;5.20;4.47;;;6.00;18.30;;;;;;6288407;28;20872;-56